Time;durP1;ratioP1;P1;durP2;ratioP2;P2;SDS_P1;SDS_P2;PMS_P1;PMS_P2;Temp;Humidity;BMP_temperature;BMP_pressure;BME280_temperature;BME280_humidity;BME280_pressure;Samples;Min_cycle;Max_cycle;Signal;HPM_P1;HPM_P2
2022/05/02 00:00:42;;;;;;;25.23;10.88;;;;;;;;;;4949662;28;20443;-65
2022/05/02 00:03:09;;;;;;;27.35;11.23;;;;;;;;;;4950033;28;20444;-64
2022/05/02 00:05:34;;;;;;;27.73;10.45;;;;;;;;;;4950356;28;20449;-65
2022/05/02 00:07:59;;;;;;;25.05;10.27;;;;;;;;;;4950383;28;20437;-64
2022/05/02 00:10:25;;;;;;;29.02;10.75;;;;;;;;;;4952126;28;20168;-64
2022/05/02 00:12:50;;;;;;;24.65;10.05;;;;;;;;;;4954137;28;20483;-65
2022/05/02 00:15:15;;;;;;;25.95;10.10;;;;;;;;;;4952586;28;20464;-65
2022/05/02 00:17:56;;;;;;;22.77;9.32;;;;;;;;;;4952700;28;20523;-64
2022/05/02 00:20:27;;;;;;;23.25;9.27;;;;;;;;;;4953063;28;20513;-64
2022/05/02 00:22:53;;;;;;;19.35;9.07;;;;;;;;;;4952333;28;20433;-66
2022/05/02 00:25:19;;;;;;;23.92;9.68;;;;;;;;;;4952776;28;20568;-64
2022/05/02 00:27:44;;;;;;;16.85;7.63;;;;;;;;;;4952756;28;20449;-65
2022/05/02 00:30:11;;;;;;;23.75;8.90;;;;;;;;;;4953785;28;20461;-64
2022/05/02 00:32:37;;;;;;;18.40;8.25;;;;;;;;;;4953405;28;20484;-65
2022/05/02 00:35:04;;;;;;;21.38;9.23;;;;;;;;;;4952106;28;20303;-65
2022/05/02 00:37:29;;;;;;;18.35;8.05;;;;;;;;;;4953616;28;20448;-65
2022/05/02 00:39:55;;;;;;;21.60;9.88;;;;;;;;;;4952074;28;20331;-64
2022/05/02 00:42:20;;;;;;;18.58;8.95;;;;;;;;;;4952073;28;20583;-64
2022/05/02 00:44:46;;;;;;;19.50;8.82;;;;;;;;;;4952492;28;20484;-65
2022/05/02 00:47:11;;;;;;;25.17;9.40;;;;;;;;;;4952885;28;20504;-64
2022/05/02 00:49:38;;;;;;;19.00;8.35;;;;;;;;;;4952368;28;20460;-64
2022/05/02 00:52:04;;;;;;;16.48;8.30;;;;;;;;;;4952153;28;20445;-64
2022/05/02 00:54:30;;;;;;;22.05;8.80;;;;;;;;;;4951792;28;20465;-64
2022/05/02 00:56:55;;;;;;;20.40;8.27;;;;;;;;;;4952313;28;20469;-65
2022/05/02 00:59:21;;;;;;;18.15;8.10;;;;;;;;;;4952193;28;20329;-65
2022/05/02 01:01:47;;;;;;;17.42;8.50;;;;;;;;;;4931643;28;20453;-64
2022/05/02 01:04:12;;;;;;;16.85;8.00;;;;;;;;;;4952074;28;20409;-65
2022/05/02 01:09:22;;;;;;;16.75;7.93;;;;;;;;;;4953030;28;20453;-65
2022/05/02 01:11:47;;;;;;;12.75;6.45;;;;;;;;;;4933978;28;20448;-65
2022/05/02 01:14:15;;;;;;;18.85;8.95;;;;;;;;;;4950528;28;20357;-65
2022/05/02 01:16:41;;;;;;;18.25;7.85;;;;;;;;;;4952354;28;20373;-65
2022/05/02 01:19:06;;;;;;;17.25;7.78;;;;;;;;;;4950980;28;20338;-64
2022/05/02 01:21:31;;;;;;;19.45;8.02;;;;;;;;;;4952482;28;20101;-64
2022/05/02 01:24:01;;;;;;;17.77;7.82;;;;;;;;;;4951333;28;20477;-65
2022/05/02 01:26:27;;;;;;;17.13;7.85;;;;;;;;;;4951800;28;20333;-66
2022/05/02 01:28:58;;;;;;;16.02;7.15;;;;;;;;;;4952623;28;20409;-64
2022/05/02 01:31:23;;;;;;;15.30;6.85;;;;;;;;;;4933632;28;20419;-64
2022/05/02 01:33:50;;;;;;;16.65;7.30;;;;;;;;;;4951363;28;20331;-65
2022/05/02 01:36:16;;;;;;;16.73;6.97;;;;;;;;;;4952438;28;20565;-64
2022/05/02 01:38:42;;;;;;;15.15;7.53;;;;;;;;;;4950993;28;20084;-65
2022/05/02 01:41:09;;;;;;;16.33;7.65;;;;;;;;;;4951426;28;20129;-65
2022/05/02 01:43:35;;;;;;;15.10;7.63;;;;;;;;;;4933903;28;20338;-65
2022/05/02 01:46:01;;;;;;;18.08;8.15;;;;;;;;;;4950746;28;20377;-65
2022/05/02 01:48:27;;;;;;;12.95;6.93;;;;;;;;;;4951229;28;20433;-65
2022/05/02 01:50:53;;;;;;;15.68;7.45;;;;;;;;;;4951432;28;20425;-65
2022/05/02 01:53:18;;;;;;;14.52;6.80;;;;;;;;;;4951333;28;20465;-65
2022/05/02 01:55:43;;;;;;;17.02;7.43;;;;;;;;;;4950327;28;20464;-65
2022/05/02 01:58:09;;;;;;;16.95;7.97;;;;;;;;;;4933837;28;20421;-65
2022/05/02 02:00:34;;;;;;;17.92;7.20;;;;;;;;;;4951155;28;20335;-65
2022/05/02 02:02:59;;;;;;;16.52;6.88;;;;;;;;;;4950744;28;20421;-65
2022/05/02 02:08:09;;;;;;;15.13;7.40;;;;;;;;;;4952033;28;20362;-65
2022/05/02 02:10:34;;;;;;;14.85;7.18;;;;;;;;;;4950024;28;20046;-64
2022/05/02 02:12:59;;;;;;;14.68;7.22;;;;;;;;;;4950993;28;20310;-65
2022/05/02 02:15:25;;;;;;;16.77;7.28;;;;;;;;;;4950495;28;20479;-65
2022/05/02 02:17:50;;;;;;;16.75;7.50;;;;;;;;;;4933160;28;20545;-65
2022/05/02 02:20:15;;;;;;;13.52;7.13;;;;;;;;;;4950427;28;20393;-65
2022/05/02 02:22:41;;;;;;;17.95;7.28;;;;;;;;;;4950436;28;20437;-64
2022/05/02 02:25:07;;;;;;;13.25;7.32;;;;;;;;;;4933151;28;20505;-65
2022/05/02 02:27:32;;;;;;;13.38;6.35;;;;;;;;;;4950613;28;20438;-66
2022/05/02 02:29:59;;;;;;;13.50;7.05;;;;;;;;;;4949691;28;20565;-65
2022/05/02 02:32:24;;;;;;;12.82;6.65;;;;;;;;;;4950405;28;20323;-65
2022/05/02 02:34:50;;;;;;;12.55;6.90;;;;;;;;;;4950112;28;20056;-65
2022/05/02 02:37:16;;;;;;;18.73;6.63;;;;;;;;;;4951747;28;20334;-65
2022/05/02 02:39:43;;;;;;;15.10;7.07;;;;;;;;;;4950204;28;20492;-65
2022/05/02 02:42:08;;;;;;;12.73;6.93;;;;;;;;;;4950028;28;20381;-65
2022/05/02 02:44:33;;;;;;;12.57;6.28;;;;;;;;;;4952049;28;20038;-66
2022/05/02 02:46:59;;;;;;;13.07;6.07;;;;;;;;;;4950268;28;20389;-65
2022/05/02 02:49:24;;;;;;;12.07;6.70;;;;;;;;;;4951672;28;20461;-65
2022/05/02 02:51:49;;;;;;;11.35;5.85;;;;;;;;;;4952008;28;20506;-65
2022/05/02 02:54:15;;;;;;;12.63;6.45;;;;;;;;;;4946101;28;20491;-65
2022/05/02 02:56:40;;;;;;;14.23;6.45;;;;;;;;;;4950050;28;20469;-65
2022/05/02 02:59:05;;;;;;;11.95;5.63;;;;;;;;;;4950088;28;20584;-65
2022/05/02 03:01:31;;;;;;;13.95;6.03;;;;;;;;;;4950338;28;20034;-65
2022/05/02 03:03:56;;;;;;;10.50;5.35;;;;;;;;;;4949893;28;20052;-65
2022/05/02 03:06:21;;;;;;;11.88;5.40;;;;;;;;;;4949588;28;20345;-65
2022/05/02 03:08:47;;;;;;;11.10;5.22;;;;;;;;;;4950825;28;20445;-65
2022/05/02 03:11:12;;;;;;;11.05;5.03;;;;;;;;;;4949078;28;20461;-65
2022/05/02 03:13:38;;;;;;;10.45;4.93;;;;;;;;;;4949719;28;20452;-64
2022/05/02 03:16:04;;;;;;;10.60;5.40;;;;;;;;;;4949215;28;20429;-67
2022/05/02 03:18:29;;;;;;;12.70;4.85;;;;;;;;;;4932298;28;20388;-66
2022/05/02 03:20:54;;;;;;;12.02;5.25;;;;;;;;;;4949359;28;20030;-64
2022/05/02 03:23:20;;;;;;;8.85;5.60;;;;;;;;;;4949921;28;20370;-66
2022/05/02 03:25:46;;;;;;;9.23;4.93;;;;;;;;;;4951880;28;20576;-65
2022/05/02 03:28:12;;;;;;;9.35;4.68;;;;;;;;;;4949891;28;20361;-65
2022/05/02 03:30:37;;;;;;;7.97;4.20;;;;;;;;;;4949787;28;20380;-64
2022/05/02 03:33:02;;;;;;;9.77;4.32;;;;;;;;;;4950506;28;20400;-65
2022/05/02 03:35:29;;;;;;;13.23;5.07;;;;;;;;;;4951476;28;20488;-65
2022/05/02 03:37:54;;;;;;;10.68;4.85;;;;;;;;;;4949765;28;20406;-65
2022/05/02 03:40:20;;;;;;;9.90;4.90;;;;;;;;;;4949377;28;20376;-64
2022/05/02 03:42:45;;;;;;;10.65;4.93;;;;;;;;;;4952588;28;20481;-65
2022/05/02 03:45:11;;;;;;;8.52;4.25;;;;;;;;;;4953427;28;20504;-65
2022/05/02 03:47:36;;;;;;;8.65;4.75;;;;;;;;;;4951827;28;20446;-65
2022/05/02 03:50:02;;;;;;;11.65;4.28;;;;;;;;;;4953703;28;20394;-65
2022/05/02 03:52:27;;;;;;;9.65;4.68;;;;;;;;;;4952957;28;20369;-64
2022/05/02 03:54:52;;;;;;;7.90;4.43;;;;;;;;;;4952835;28;20419;-65
2022/05/02 03:57:18;;;;;;;9.43;4.53;;;;;;;;;;4953100;28;20390;-64
2022/05/02 03:59:43;;;;;;;9.32;5.05;;;;;;;;;;4952914;28;20060;-65
2022/05/02 04:02:08;;;;;;;10.00;4.35;;;;;;;;;;4954645;28;20030;-65
2022/05/02 04:04:34;;;;;;;8.57;4.47;;;;;;;;;;4954086;28;20429;-65
2022/05/02 04:06:59;;;;;;;10.30;5.15;;;;;;;;;;4953054;28;20326;-65
2022/05/02 04:09:24;;;;;;;10.80;4.80;;;;;;;;;;4953884;28;20440;-65
2022/05/02 04:11:49;;;;;;;7.88;3.95;;;;;;;;;;4952337;28;20441;-65
2022/05/02 04:14:15;;;;;;;10.52;4.43;;;;;;;;;;4952790;28;20425;-65
2022/05/02 04:16:40;;;;;;;11.60;4.72;;;;;;;;;;4953093;28;20415;-65
2022/05/02 04:19:06;;;;;;;8.25;4.47;;;;;;;;;;4952535;28;20397;-65
2022/05/02 04:21:31;;;;;;;9.27;4.75;;;;;;;;;;4953121;28;20433;-66
2022/05/02 04:23:57;;;;;;;10.43;4.63;;;;;;;;;;4952312;28;20042;-66
2022/05/02 04:26:22;;;;;;;7.63;4.85;;;;;;;;;;4952462;28;20573;-65
2022/05/02 04:28:47;;;;;;;8.55;4.57;;;;;;;;;;4952443;28;20473;-65
2022/05/02 04:31:13;;;;;;;7.57;3.90;;;;;;;;;;4952476;28;20409;-66
2022/05/02 04:33:39;;;;;;;7.82;3.70;;;;;;;;;;4952743;28;20395;-66
2022/05/02 04:36:05;;;;;;;7.78;4.53;;;;;;;;;;4952874;28;20401;-65
2022/05/02 04:38:31;;;;;;;9.57;4.15;;;;;;;;;;4935270;28;20037;-64
2022/05/02 04:40:57;;;;;;;9.35;4.18;;;;;;;;;;4952035;28;20026;-65
2022/05/02 04:43:22;;;;;;;6.57;3.55;;;;;;;;;;4952360;28;20460;-65
2022/05/02 04:45:48;;;;;;;10.25;4.13;;;;;;;;;;4951679;28;20437;-65
2022/05/02 04:48:13;;;;;;;10.20;4.90;;;;;;;;;;4953577;28;20380;-65
2022/05/02 04:50:38;;;;;;;7.22;4.22;;;;;;;;;;4952147;28;20564;-65
2022/05/02 04:53:05;;;;;;;7.50;4.30;;;;;;;;;;4951590;28;20413;-65
2022/05/02 04:55:30;;;;;;;7.13;4.35;;;;;;;;;;4952385;28;20136;-66
2022/05/02 04:57:55;;;;;;;9.13;4.25;;;;;;;;;;4951957;28;20467;-64
2022/05/02 05:00:21;;;;;;;8.10;3.70;;;;;;;;;;4951790;28;20395;-66
2022/05/02 05:02:46;;;;;;;7.70;3.58;;;;;;;;;;4934475;28;20417;-65
2022/05/02 05:05:12;;;;;;;7.38;3.83;;;;;;;;;;4951951;28;20368;-65
2022/05/02 05:07:38;;;;;;;6.95;3.60;;;;;;;;;;4952455;28;20405;-65
2022/05/02 05:10:05;;;;;;;9.63;3.85;;;;;;;;;;4952090;28;20455;-65
2022/05/02 05:12:55;;;;;;;9.38;4.45;;;;;;;;;;4951680;28;20404;-65
2022/05/02 05:18:35;;;;;;;12.48;4.28;;;;;;;;;;4951548;28;20341;-66
2022/05/02 05:21:38;;;;;;;11.45;4.38;;;;;;;;;;4934364;28;20377;-65
2022/05/02 05:24:29;;;;;;;8.63;4.10;;;;;;;;;;4930820;28;20587;-65
2022/05/02 05:27:13;;;;;;;6.75;3.78;;;;;;;;;;4934154;28;20350;-65
2022/05/02 05:30:08;;;;;;;8.18;3.75;;;;;;;;;;4951826;28;20353;-65
2022/05/02 05:32:40;;;;;;;8.25;3.72;;;;;;;;;;4943341;28;20453;-65
2022/05/02 05:35:09;;;;;;;6.68;3.53;;;;;;;;;;4951395;28;20385;-65
2022/05/02 05:37:47;;;;;;;6.68;3.55;;;;;;;;;;4952934;28;20456;-65
2022/05/02 05:40:25;;;;;;;7.55;4.07;;;;;;;;;;4951149;28;20531;-66
2022/05/02 05:43:13;;;;;;;8.35;3.55;;;;;;;;;;4951096;28;20342;-65
2022/05/02 05:46:07;;;;;;;7.55;3.10;;;;;;;;;;4933883;28;20495;-65
2022/05/02 05:49:00;;;;;;;4.70;3.00;;;;;;;;;;4951117;28;20434;-65
2022/05/02 05:52:15;;;;;;;6.65;4.15;;;;;;;;;;4933692;28;20345;-65
2022/05/02 05:55:07;;;;;;;7.20;3.78;;;;;;;;;;4937262;28;20453;-65
2022/05/02 05:57:39;;;;;;;8.40;3.38;;;;;;;;;;4948521;28;20330;-65
2022/05/02 06:00:14;;;;;;;9.05;3.58;;;;;;;;;;4933534;28;20377;-66
2022/05/02 06:02:58;;;;;;;5.93;3.17;;;;;;;;;;4951032;28;20453;-64
2022/05/02 06:05:23;;;;;;;8.10;3.47;;;;;;;;;;4950999;28;20041;-65
2022/05/02 06:07:51;;;;;;;6.15;3.33;;;;;;;;;;4952374;28;20460;-65
2022/05/02 06:10:16;;;;;;;7.38;3.50;;;;;;;;;;4950289;28;20389;-64
2022/05/02 06:12:43;;;;;;;7.05;3.50;;;;;;;;;;4952060;28;20030;-65
2022/05/02 06:20:43;;;;;;;5.60;3.40;;;;;;;;;;4950829;28;20495;-65
2022/05/02 06:23:09;;;;;;;9.13;3.58;;;;;;;;;;4950500;28;20492;-65
2022/05/02 06:25:36;;;;;;;6.75;3.35;;;;;;;;;;4932130;28;20437;-65
2022/05/02 06:28:03;;;;;;;8.90;3.53;;;;;;;;;;4949028;28;20495;-65
2022/05/02 06:30:30;;;;;;;7.43;4.22;;;;;;;;;;4948592;28;20341;-65
2022/05/02 06:32:57;;;;;;;6.88;3.05;;;;;;;;;;4950062;28;20390;-65
2022/05/02 06:35:29;;;;;;;6.88;3.35;;;;;;;;;;4921313;28;20046;-65
2022/05/02 06:38:17;;;;;;;7.55;4.18;;;;;;;;;;4932046;28;20346;-65
2022/05/02 06:41:18;;;;;;;6.88;3.88;;;;;;;;;;4932562;28;20330;-65
2022/05/02 06:44:03;;;;;;;6.10;3.50;;;;;;;;;;4927934;28;20393;-65
2022/05/02 06:46:46;;;;;;;6.22;3.25;;;;;;;;;;4932880;28;20341;-65
2022/05/02 06:49:12;;;;;;;7.60;3.50;;;;;;;;;;4932174;28;20401;-64
2022/05/02 06:51:47;;;;;;;6.32;3.17;;;;;;;;;;4950411;28;20487;-65
2022/05/02 06:54:42;;;;;;;7.28;3.20;;;;;;;;;;4949762;28;20445;-65
2022/05/02 06:57:27;;;;;;;6.15;3.00;;;;;;;;;;4949474;28;20325;-65
2022/05/02 07:00:00;;;;;;;5.75;3.15;;;;;;;;;;4931872;28;20042;-65
2022/05/02 07:02:55;;;;;;;12.57;4.18;;;;;;;;;;4932727;28;20405;-65
2022/05/02 07:05:30;;;;;;;6.30;3.53;;;;;;;;;;4949500;28;20348;-64
2022/05/02 07:08:05;;;;;;;4.80;3.20;;;;;;;;;;4932494;28;20408;-64
2022/05/02 07:10:35;;;;;;;5.32;3.15;;;;;;;;;;4949108;28;20136;-64
2022/05/02 07:13:39;;;;;;;7.22;3.78;;;;;;;;;;4949317;28;20025;-65
2022/05/02 07:16:24;;;;;;;6.82;3.30;;;;;;;;;;4950040;28;20381;-65
2022/05/02 07:19:07;;;;;;;6.25;3.40;;;;;;;;;;4950243;28;20034;-65
2022/05/02 07:21:43;;;;;;;6.95;3.20;;;;;;;;;;4931959;28;20487;-64
2022/05/02 07:24:11;;;;;;;9.45;3.35;;;;;;;;;;4931965;28;20476;-65
2022/05/02 07:26:36;;;;;;;6.20;3.40;;;;;;;;;;4950142;28;20432;-65
2022/05/02 07:29:03;;;;;;;6.25;3.97;;;;;;;;;;4932591;28;20548;-64
2022/05/02 07:31:29;;;;;;;9.63;3.97;;;;;;;;;;4949441;28;20431;-65
2022/05/02 07:33:55;;;;;;;10.35;3.50;;;;;;;;;;4932242;28;20311;-64
2022/05/02 07:36:22;;;;;;;5.82;3.30;;;;;;;;;;4949294;28;20489;-65
2022/05/02 07:39:00;;;;;;;5.20;3.03;;;;;;;;;;4949302;28;20343;-65
2022/05/02 07:41:26;;;;;;;6.20;3.05;;;;;;;;;;4949007;28;20446;-64
2022/05/02 07:44:05;;;;;;;6.97;3.25;;;;;;;;;;4949609;28;20069;-65
2022/05/02 07:46:38;;;;;;;6.63;2.80;;;;;;;;;;4948879;28;20468;-64
2022/05/02 07:49:06;;;;;;;6.60;2.97;;;;;;;;;;4949307;28;20311;-64
2022/05/02 07:51:32;;;;;;;5.45;2.97;;;;;;;;;;4951086;28;20381;-65
2022/05/02 07:53:59;;;;;;;5.65;2.83;;;;;;;;;;4948701;28;20342;-65
2022/05/02 07:56:30;;;;;;;5.53;3.03;;;;;;;;;;4950186;28;20030;-65
2022/05/02 07:58:57;;;;;;;5.75;3.40;;;;;;;;;;4949796;28;20109;-64
2022/05/02 08:01:24;;;;;;;7.22;2.83;;;;;;;;;;4931235;28;20057;-65
2022/05/02 08:03:50;;;;;;;9.85;3.00;;;;;;;;;;4949697;28;20034;-65
2022/05/02 08:07:10;;;;;;;4.70;2.80;;;;;;;;;;4949220;28;20455;-64
2022/05/02 08:09:41;;;;;;;5.28;2.83;;;;;;;;;;4907593;28;20410;-64
2022/05/02 08:12:28;;;;;;;5.55;3.05;;;;;;;;;;4929968;28;20382;-65
2022/05/02 08:15:05;;;;;;;4.88;2.45;;;;;;;;;;4950456;28;20441;-65
2022/05/02 08:17:47;;;;;;;4.20;2.50;;;;;;;;;;4931585;28;20445;-64
2022/05/02 08:20:20;;;;;;;5.75;2.95;;;;;;;;;;4948973;28;20352;-65
2022/05/02 08:29:29;;;;;;;5.43;3.00;;;;;;;;;;4936509;28;20325;-67
2022/05/02 08:32:03;;;;;;;4.75;3.05;;;;;;;;;;4934568;28;20386;-65
2022/05/02 08:34:34;;;;;;;5.88;2.42;;;;;;;;;;4952215;28;20642;-64
2022/05/02 08:37:19;;;;;;;6.10;3.03;;;;;;;;;;4952464;28;20406;-65
2022/05/02 08:40:01;;;;;;;5.05;2.85;;;;;;;;;;4951918;28;20341;-64
2022/05/02 08:42:41;;;;;;;4.88;2.65;;;;;;;;;;4934735;28;20499;-65
2022/05/02 08:45:27;;;;;;;4.60;2.85;;;;;;;;;;4952020;28;20317;-65
2022/05/02 08:48:18;;;;;;;4.28;2.28;;;;;;;;;;4934751;28;20377;-64
2022/05/02 08:50:46;;;;;;;4.50;2.72;;;;;;;;;;4934363;28;20394;-64
2022/05/02 08:53:24;;;;;;;5.47;2.42;;;;;;;;;;4952038;28;20496;-64
2022/05/02 08:56:19;;;;;;;6.50;3.08;;;;;;;;;;4934573;28;20136;-65
2022/05/02 08:59:18;;;;;;;5.57;2.92;;;;;;;;;;4951336;28;20553;-65
2022/05/02 09:01:56;;;;;;;3.50;1.92;;;;;;;;;;4951580;28;20460;-64
2022/05/02 09:04:46;;;;;;;5.25;2.40;;;;;;;;;;4931895;28;20532;-64
2022/05/02 09:07:39;;;;;;;6.25;2.65;;;;;;;;;;4951481;28;20438;-64
2022/05/02 09:10:10;;;;;;;8.27;2.67;;;;;;;;;;4951726;28;20357;-64
2022/05/02 09:13:18;;;;;;;3.97;2.42;;;;;;;;;;4949636;28;20414;-64
2022/05/02 09:15:59;;;;;;;4.43;2.78;;;;;;;;;;4934092;28;20097;-64
2022/05/02 09:18:46;;;;;;;3.40;2.33;;;;;;;;;;4951460;28;20421;-65
2022/05/02 09:21:50;;;;;;;4.20;2.55;;;;;;;;;;4953261;28;20374;-65
2022/05/02 09:24:43;;;;;;;4.70;2.50;;;;;;;;;;4929861;28;20360;-64
2022/05/02 09:27:42;;;;;;;4.95;2.63;;;;;;;;;;4951167;28;20644;-64
2022/05/02 09:30:33;;;;;;;4.38;2.30;;;;;;;;;;4951362;28;20412;-65
2022/05/02 09:33:01;;;;;;;3.80;2.25;;;;;;;;;;4950763;28;20433;-64
2022/05/02 09:35:34;;;;;;;5.97;3.13;;;;;;;;;;4951182;28;20113;-65
2022/05/02 09:38:15;;;;;;;3.40;2.20;;;;;;;;;;4951124;28;20033;-65
2022/05/02 09:40:41;;;;;;;5.43;2.50;;;;;;;;;;4950244;28;20485;-65
2022/05/02 09:49:36;;;;;;;5.53;2.75;;;;;;;;;;4951868;28;20426;-64
2022/05/02 09:52:15;;;;;;;7.03;2.38;;;;;;;;;;4950671;28;20112;-65
2022/05/02 09:57:49;;;;;;;3.17;2.05;;;;;;;;;;4950669;28;19935;-67
2022/05/02 10:03:11;;;;;;;3.28;2.55;;;;;;;;;;4936009;28;20384;-65
2022/05/02 10:05:45;;;;;;;5.68;2.60;;;;;;;;;;4933382;28;20426;-65
2022/05/02 10:08:22;;;;;;;5.35;3.03;;;;;;;;;;4933441;28;20034;-65
2022/05/02 10:11:00;;;;;;;4.00;2.75;;;;;;;;;;4932889;28;20402;-66
2022/05/02 10:13:47;;;;;;;4.18;2.60;;;;;;;;;;4950177;28;20317;-65
2022/05/02 10:16:36;;;;;;;2.65;2.10;;;;;;;;;;4950235;28;20352;-65
2022/05/02 10:19:32;;;;;;;3.72;2.13;;;;;;;;;;4950259;28;20400;-66
2022/05/02 10:22:04;;;;;;;4.15;2.55;;;;;;;;;;4950225;28;20121;-65
2022/05/02 10:24:43;;;;;;;5.50;2.55;;;;;;;;;;4950609;28;20385;-65
2022/05/02 10:27:20;;;;;;;4.10;2.75;;;;;;;;;;4932302;28;20469;-65
2022/05/02 10:30:03;;;;;;;5.75;2.20;;;;;;;;;;4951131;28;20390;-65
2022/05/02 10:32:31;;;;;;;4.20;2.55;;;;;;;;;;4950810;28;20333;-65
2022/05/02 10:34:59;;;;;;;4.97;2.53;;;;;;;;;;4949113;28;20368;-64
2022/05/02 10:37:31;;;;;;;3.47;2.17;;;;;;;;;;4950330;28;20022;-64
2022/05/02 10:40:10;;;;;;;3.05;2.22;;;;;;;;;;4950432;28;20425;-65
2022/05/02 10:42:36;;;;;;;3.13;1.98;;;;;;;;;;4949794;28;20022;-65
2022/05/02 10:45:06;;;;;;;4.22;2.28;;;;;;;;;;4950099;28;20053;-65
2022/05/02 10:47:52;;;;;;;5.90;2.55;;;;;;;;;;4931791;28;20338;-66
2022/05/02 10:50:19;;;;;;;4.80;2.20;;;;;;;;;;4949664;28;20349;-65
2022/05/02 10:52:47;;;;;;;3.95;2.20;;;;;;;;;;4949575;28;20457;-65
2022/05/02 10:55:20;;;;;;;4.20;2.40;;;;;;;;;;4951309;28;20473;-65
2022/05/02 10:58:00;;;;;;;3.90;2.30;;;;;;;;;;4950016;28;20410;-65
2022/05/02 11:00:25;;;;;;;3.20;2.20;;;;;;;;;;4950145;28;20465;-65
2022/05/02 11:03:03;;;;;;;4.60;2.45;;;;;;;;;;4949262;28;20436;-65
2022/05/02 11:05:36;;;;;;;4.28;2.78;;;;;;;;;;4931937;28;20401;-65
2022/05/02 11:08:07;;;;;;;4.60;2.60;;;;;;;;;;4930878;28;20389;-65
2022/05/02 11:10:42;;;;;;;3.20;2.15;;;;;;;;;;4931955;28;20468;-65
2022/05/02 11:13:12;;;;;;;5.22;2.47;;;;;;;;;;4949682;28;20372;-65
2022/05/02 11:15:53;;;;;;;3.38;2.30;;;;;;;;;;4950209;28;20452;-65
2022/05/02 11:21:53;;;;;;;5.10;2.83;;;;;;;;;;4951354;28;20425;-65
2022/05/02 11:24:29;;;;;;;4.55;2.38;;;;;;;;;;4951583;28;20504;-64
2022/05/02 11:27:14;;;;;;;3.25;2.33;;;;;;;;;;4931911;28;20503;-65
2022/05/02 11:30:02;;;;;;;4.55;2.78;;;;;;;;;;4949558;28;20430;-65
2022/05/02 11:32:34;;;;;;;3.90;2.25;;;;;;;;;;4950784;28;20197;-65
2022/05/02 11:35:24;;;;;;;4.82;2.63;;;;;;;;;;4949257;28;20456;-65
2022/05/02 11:38:11;;;;;;;4.57;2.10;;;;;;;;;;4949700;28;20674;-65
2022/05/02 11:40:44;;;;;;;4.20;2.58;;;;;;;;;;4948078;28;20346;-65
2022/05/02 11:43:11;;;;;;;4.43;2.55;;;;;;;;;;4949195;28;20026;-65
2022/05/02 11:45:44;;;;;;;2.72;2.10;;;;;;;;;;4949742;28;20424;-65
2022/05/02 11:48:29;;;;;;;2.95;2.13;;;;;;;;;;4949123;28;20421;-65
2022/05/02 11:50:55;;;;;;;4.35;2.42;;;;;;;;;;4949205;28;20366;-65
2022/05/02 11:53:25;;;;;;;4.13;2.53;;;;;;;;;;4949525;28;20325;-65
2022/05/02 11:55:50;;;;;;;;;;;;;;;;;;4932576;28;20352;-65
2022/05/02 11:58:24;;;;;;;4.45;2.55;;;;;;;;;;4950131;28;20244;-65
2022/05/02 12:01:02;;;;;;;4.93;2.35;;;;;;;;;;4949668;28;20088;-65
2022/05/02 12:03:45;;;;;;;3.90;2.55;;;;;;;;;;4952086;28;20464;-65
2022/05/02 12:06:14;;;;;;;2.83;2.10;;;;;;;;;;4935325;28;20322;-65
2022/05/02 12:08:44;;;;;;;5.50;2.60;;;;;;;;;;4935511;28;20436;-65
2022/05/02 12:11:11;;;;;;;3.50;2.55;;;;;;;;;;4953098;28;20461;-66
2022/05/02 12:13:40;;;;;;;3.63;2.20;;;;;;;;;;4952704;28;20437;-65
2022/05/02 12:16:14;;;;;;;3.65;2.45;;;;;;;;;;4952748;28;20338;-66
2022/05/02 12:18:42;;;;;;;4.35;2.35;;;;;;;;;;4952811;28;20091;-65
2022/05/02 12:21:11;;;;;;;3.30;2.17;;;;;;;;;;4952746;28;20484;-65
2022/05/02 12:23:40;;;;;;;4.50;2.33;;;;;;;;;;4954180;28;20673;-65
2022/05/02 12:26:18;;;;;;;2.85;2.05;;;;;;;;;;4935254;28;20347;-65
2022/05/02 12:28:48;;;;;;;3.03;2.10;;;;;;;;;;4952698;28;20380;-64
2022/05/02 12:31:27;;;;;;;3.00;2.10;;;;;;;;;;4952242;28;20452;-65
2022/05/02 12:34:05;;;;;;;4.07;2.30;;;;;;;;;;4950768;28;20345;-64
2022/05/02 12:36:48;;;;;;;3.60;2.05;;;;;;;;;;4952705;28;20352;-65
2022/05/02 12:39:17;;;;;;;2.67;1.70;;;;;;;;;;4952195;28;20338;-65
2022/05/02 12:41:49;;;;;;;3.50;2.53;;;;;;;;;;4952048;28;20457;-64
2022/05/02 12:44:15;;;;;;;3.30;2.25;;;;;;;;;;4953075;28;20460;-65
2022/05/02 12:46:45;;;;;;;3.03;2.15;;;;;;;;;;4934199;28;20422;-65
2022/05/02 12:49:16;;;;;;;3.35;2.15;;;;;;;;;;4953093;28;20329;-65
2022/05/02 12:51:53;;;;;;;4.45;2.35;;;;;;;;;;4934451;28;20029;-65
2022/05/02 12:54:21;;;;;;;3.92;2.30;;;;;;;;;;4953000;28;20029;-64
2022/05/02 13:03:03;;;;;;;2.85;1.80;;;;;;;;;;4952732;28;20417;-66
2022/05/02 13:05:31;;;;;;;8.30;1.85;;;;;;;;;;4946307;28;20064;-64
2022/05/02 13:07:58;;;;;;;3.47;2.30;;;;;;;;;;4934811;28;20034;-64
2022/05/02 13:10:26;;;;;;;4.35;2.10;;;;;;;;;;4952816;28;20504;-66
2022/05/02 13:13:09;;;;;;;3.55;2.00;;;;;;;;;;4932449;28;20427;-64
2022/05/02 13:15:49;;;;;;;2.78;1.83;;;;;;;;;;4931496;28;20369;-64
2022/05/02 13:21:37;;;;;;;4.70;2.30;;;;;;;;;;4931346;28;20390;-65
2022/05/02 13:24:10;;;;;;;3.97;2.35;;;;;;;;;;4914373;28;20034;-65
2022/05/02 13:27:27;;;;;;;4.25;1.98;;;;;;;;;;4931854;28;20473;-65
2022/05/02 13:30:08;;;;;;;3.58;1.95;;;;;;;;;;4909324;28;20397;-65
2022/05/02 13:32:41;;;;;;;2.83;2.00;;;;;;;;;;4931962;28;20441;-66
2022/05/02 13:35:15;;;;;;;3.75;2.05;;;;;;;;;;4933250;28;20430;-65
2022/05/02 13:37:49;;;;;;;3.35;2.00;;;;;;;;;;4931734;28;20401;-65
2022/05/02 13:40:16;;;;;;;2.90;2.05;;;;;;;;;;4931664;28;20390;-64
2022/05/02 13:42:55;;;;;;;3.60;2.08;;;;;;;;;;4932966;28;20053;-64
2022/05/02 13:45:33;;;;;;;;;;;;;;;;;;4931847;28;20346;-65
2022/05/02 13:48:07;;;;;;;3.78;1.88;;;;;;;;;;4932385;28;20202;-65
2022/05/02 13:50:46;;;;;;;2.90;2.50;;;;;;;;;;4931142;28;20026;-65
2022/05/02 13:53:27;;;;;;;3.22;2.20;;;;;;;;;;4913978;28;20537;-65
2022/05/02 13:56:07;;;;;;;2.78;1.83;;;;;;;;;;4931410;28;20386;-65
2022/05/02 13:58:57;;;;;;;2.67;1.77;;;;;;;;;;4930918;28;20460;-64
2022/05/02 14:01:32;;;;;;;3.53;2.17;;;;;;;;;;4913756;28;20453;-65
2022/05/02 14:04:17;;;;;;;4.93;2.28;;;;;;;;;;4931499;28;20418;-65
2022/05/02 14:09:55;;;;;;;2.70;1.88;;;;;;;;;;4916816;28;20521;-65
2022/05/02 14:12:23;;;;;;;4.05;2.13;;;;;;;;;;4947043;28;20069;-65
2022/05/02 14:14:56;;;;;;;2.40;1.80;;;;;;;;;;4952295;28;20356;-65
2022/05/02 14:17:35;;;;;;;4.18;2.13;;;;;;;;;;4951406;28;20310;-65
2022/05/02 14:20:13;;;;;;;3.55;2.25;;;;;;;;;;4950218;28;20459;-65
2022/05/02 14:22:40;;;;;;;2.38;2.00;;;;;;;;;;4950657;28;20385;-65
2022/05/02 14:25:08;;;;;;;2.90;2.25;;;;;;;;;;4950253;28;20084;-65
2022/05/02 14:27:33;;;;;;;2.50;1.67;;;;;;;;;;4950612;28;20058;-64
2022/05/02 14:30:02;;;;;;;3.25;2.00;;;;;;;;;;4950453;28;20504;-65
2022/05/02 14:32:41;;;;;;;2.90;2.00;;;;;;;;;;4950042;28;20500;-65
2022/05/02 14:35:08;;;;;;;3.78;2.35;;;;;;;;;;4952182;28;20438;-65
2022/05/02 14:37:34;;;;;;;2.95;2.08;;;;;;;;;;4950215;28;20442;-65
2022/05/02 14:40:00;;;;;;;3.22;2.13;;;;;;;;;;4933031;28;20124;-65
2022/05/02 14:42:26;;;;;;;3.75;2.17;;;;;;;;;;4950225;28;20459;-65
2022/05/02 14:44:52;;;;;;;2.15;1.75;;;;;;;;;;4933498;28;20414;-66
2022/05/02 14:47:19;;;;;;;2.38;1.65;;;;;;;;;;4916339;28;20349;-65
2022/05/02 14:49:44;;;;;;;5.40;2.00;;;;;;;;;;4933024;28;20034;-65
2022/05/02 14:52:18;;;;;;;3.25;2.15;;;;;;;;;;4949754;28;20508;-65
2022/05/02 14:54:45;;;;;;;4.85;2.78;;;;;;;;;;4933641;28;20480;-64
2022/05/02 14:57:13;;;;;;;4.88;2.55;;;;;;;;;;4949829;28;20445;-65
2022/05/02 14:59:39;;;;;;;2.80;1.77;;;;;;;;;;4949650;28;20429;-65
2022/05/02 15:02:06;;;;;;;2.67;2.10;;;;;;;;;;4932581;28;20410;-65
2022/05/02 15:04:35;;;;;;;3.15;1.95;;;;;;;;;;4931676;28;20084;-65
2022/05/02 15:07:00;;;;;;;;;;;;;;;;;;4950774;28;20421;-65
2022/05/02 15:12:49;;;;;;;3.30;2.03;;;;;;;;;;4949606;28;20504;-65
2022/05/02 15:15:48;;;;;;;3.58;1.80;;;;;;;;;;4932130;28;20064;-65
2022/05/02 15:18:36;;;;;;;2.50;1.95;;;;;;;;;;4949416;28;20057;-65
2022/05/02 15:21:06;;;;;;;2.85;1.98;;;;;;;;;;4950433;28;20428;-64
2022/05/02 15:23:31;;;;;;;3.08;2.15;;;;;;;;;;4931962;28;20349;-65
2022/05/02 15:25:56;;;;;;;3.95;1.90;;;;;;;;;;4949707;28;20425;-65
2022/05/02 15:36:53;;;;;;;5.57;1.92;;;;;;;;;;4950264;28;20528;-65
2022/05/02 15:39:18;;;;;;;3.03;2.20;;;;;;;;;;4953609;28;20058;-65
2022/05/02 15:41:43;;;;;;;3.80;2.05;;;;;;;;;;4953411;28;20561;-65
2022/05/02 15:44:14;;;;;;;3.20;1.92;;;;;;;;;;4953675;28;20587;-65
2022/05/02 15:46:43;;;;;;;3.47;2.45;;;;;;;;;;4953519;28;20104;-64
2022/05/02 15:49:11;;;;;;;3.33;2.22;;;;;;;;;;4953164;28;20376;-65
2022/05/02 15:52:06;;;;;;;3.33;2.35;;;;;;;;;;4953397;28;20500;-65
2022/05/02 15:54:43;;;;;;;3.03;2.00;;;;;;;;;;4944507;28;20413;-65
2022/05/02 15:57:11;;;;;;;4.95;2.20;;;;;;;;;;4953823;28;20367;-65
2022/05/02 15:59:38;;;;;;;2.70;1.92;;;;;;;;;;4954230;28;20410;-65
2022/05/02 16:02:05;;;;;;;2.58;1.92;;;;;;;;;;4952576;28;20445;-65
2022/05/02 16:04:33;;;;;;;3.85;2.03;;;;;;;;;;4953260;28;20030;-65
2022/05/02 16:10:29;;;;;;;2.53;2.03;;;;;;;;;;4952788;28;20357;-65
2022/05/02 16:12:42;;;;;;;2.45;1.67;;;;;;;;;;4952998;28;20369;-65
2022/05/02 16:15:13;;;;;;;4.70;2.00;;;;;;;;;;4952882;28;20345;-65